Time;durP1;ratioP1;P1;durP2;ratioP2;P2;SDS_P1;SDS_P2;PMS_P1;PMS_P2;Temp;Humidity;BMP_temperature;BMP_pressure;BME280_temperature;BME280_humidity;BME280_pressure;Samples;Min_cycle;Max_cycle;Signal;HPM_P1;HPM_P2
2020/12/30 00:02:18;;;;;;;32.90;20.67;;;3.90;99.90;;;-146.47;100.00;66290.13;4906148;29;20253;-80
2020/12/30 00:05:08;;;;;;;35.77;24.63;;;3.90;99.90;;;-146.47;100.00;66290.13;4900567;29;20304;-82
2020/12/30 00:07:53;;;;;;;36.63;21.80;;;3.80;99.90;;;-146.47;100.00;66290.13;4903191;29;20267;-81
2020/12/30 00:10:38;;;;;;;37.53;24.27;;;3.80;99.90;;;-146.47;100.00;66290.13;4896648;29;20257;-81
2020/12/30 00:13:23;;;;;;;42.53;28.40;;;3.70;99.90;;;-146.47;100.00;66290.13;4921642;29;20224;-80
2020/12/30 00:16:09;;;;;;;45.80;27.40;;;3.60;99.90;;;-146.47;100.00;66290.13;4899018;29;20295;-82
2020/12/30 00:18:55;;;;;;;43.10;26.50;;;3.60;99.90;;;-146.47;100.00;66290.13;4904507;29;20628;-81
2020/12/30 00:21:40;;;;;;;45.50;26.20;;;3.50;99.90;;;-146.47;100.00;66290.13;4904430;29;20566;-81
2020/12/30 00:24:25;;;;;;;49.07;25.93;;;3.50;99.90;;;-146.47;100.00;66290.13;4889809;29;20232;-81
2020/12/30 00:27:11;;;;;;;43.67;23.97;;;3.40;99.90;;;-146.47;100.00;66290.13;4889903;29;20256;-81
2020/12/30 00:29:56;;;;;;;44.27;27.53;;;3.30;99.90;;;-146.47;100.00;66290.13;4901904;29;20211;-81
2020/12/30 00:32:43;;;;;;;42.73;26.07;;;3.30;99.90;;;-146.47;100.00;66290.13;4904598;29;20213;-81
2020/12/30 00:35:29;;;;;;;49.20;29.57;;;3.20;99.90;;;-146.47;100.00;66290.13;4895445;29;20232;-81
2020/12/30 00:38:14;;;;;;;42.37;27.87;;;3.20;99.90;;;-146.47;100.00;66290.13;4890918;29;20216;-80
2020/12/30 00:41:00;;;;;;;46.73;27.87;;;3.10;99.90;;;-146.47;100.00;66290.13;4901459;29;20247;-80
2020/12/30 00:43:45;;;;;;;47.43;27.43;;;3.00;99.90;;;-146.47;100.00;66290.13;4899201;29;20296;-79
2020/12/30 00:46:30;;;;;;;46.63;27.10;;;3.00;99.90;;;-146.47;100.00;66290.13;4903162;29;20219;-81
2020/12/30 00:49:15;;;;;;;40.20;25.37;;;2.90;99.90;;;-146.47;100.00;66290.13;4904014;29;20211;-81
2020/12/30 00:52:02;;;;;;;42.30;26.00;;;2.90;99.90;;;-146.47;100.00;66290.13;4904169;29;20641;-80
2020/12/30 00:54:47;;;;;;;49.03;28.43;;;2.80;99.90;;;-146.47;100.00;66290.13;4902271;29;20241;-81
2020/12/30 00:57:32;;;;;;;46.27;24.73;;;2.80;99.90;;;-146.47;100.00;66290.13;4902395;29;20220;-80
2020/12/30 01:00:17;;;;;;;47.23;30.73;;;2.70;99.90;;;-146.47;100.00;66290.13;4901113;29;20252;-80
2020/12/30 01:03:03;;;;;;;44.63;27.23;;;2.70;99.90;;;-146.47;100.00;66290.13;4901129;29;20347;-80
2020/12/30 01:05:48;;;;;;;54.30;30.00;;;2.70;99.90;;;-146.47;100.00;66290.13;4890561;29;20232;-82
2020/12/30 01:08:34;;;;;;;51.87;30.50;;;2.60;99.90;;;-146.47;100.00;66290.13;4901393;29;20245;-79
2020/12/30 01:11:25;;;;;;;54.47;33.03;;;2.60;99.90;;;-146.47;100.00;66290.13;4903502;29;20208;-80
2020/12/30 01:14:11;;;;;;;53.43;30.20;;;2.60;99.90;;;-146.47;100.00;66290.13;4899081;29;20244;-82
2020/12/30 01:16:56;;;;;;;57.33;33.40;;;2.50;99.90;;;-146.47;100.00;66290.13;4902171;29;20215;-80
2020/12/30 01:19:41;;;;;;;44.30;23.53;;;2.50;99.90;;;-146.47;100.00;66290.13;4902783;29;20580;-80
2020/12/30 01:22:26;;;;;;;54.27;31.53;;;2.50;99.90;;;-146.47;100.00;66290.13;4902878;29;20242;-81
2020/12/30 01:25:12;;;;;;;55.87;29.63;;;2.40;99.90;;;-146.47;100.00;66290.13;4895696;29;20244;-80
2020/12/30 01:27:58;;;;;;;51.87;30.73;;;2.40;99.90;;;-146.47;100.00;66290.13;4893622;29;20246;-81
2020/12/30 01:30:43;;;;;;;47.37;28.53;;;2.40;99.90;;;-146.47;100.00;66290.13;4904797;29;20275;-80
2020/12/30 01:33:28;;;;;;;52.03;28.97;;;2.30;99.90;;;-146.47;100.00;66290.13;4895110;29;20233;-80
2020/12/30 01:36:13;;;;;;;47.10;30.07;;;2.30;99.90;;;-146.47;100.00;66290.13;4901505;29;20253;-80
2020/12/30 01:38:59;;;;;;;51.17;28.83;;;2.30;99.90;;;-146.47;100.00;66290.13;4901671;29;20204;-81
2020/12/30 01:41:45;;;;;;;55.23;29.07;;;2.20;99.90;;;-146.47;100.00;66290.13;4897591;29;20671;-80
2020/12/30 01:44:30;;;;;;;60.10;32.73;;;2.20;99.90;;;-146.47;100.00;66290.13;4901870;29;20234;-80
2020/12/30 01:47:17;;;;;;;40.87;20.47;;;2.20;99.90;;;-146.47;100.00;66290.13;4906231;29;20307;-80
2020/12/30 01:50:04;;;;;;;51.70;29.07;;;2.20;99.90;;;-146.47;100.00;66290.13;4907609;29;20204;-79
2020/12/30 01:52:53;;;;;;;57.37;30.67;;;2.10;99.90;;;-146.47;100.00;66290.13;4895984;29;20208;-81
2020/12/30 01:55:40;;;;;;;49.53;27.47;;;2.10;99.90;;;-146.47;100.00;66290.13;4915080;29;20208;-81
2020/12/30 01:58:26;;;;;;;58.33;32.27;;;2.10;99.90;;;-146.47;100.00;66290.13;4889437;29;20204;-80
2020/12/30 02:01:12;;;;;;;62.00;32.47;;;2.10;99.90;;;-146.47;100.00;66290.13;4902692;29;20295;-80
2020/12/30 02:03:58;;;;;;;59.17;32.60;;;2.10;99.90;;;-146.47;100.00;66290.13;4901659;29;20251;-79
2020/12/30 02:06:43;;;;;;;52.97;28.27;;;2.10;99.90;;;-146.47;100.00;66290.13;4903563;29;20331;-80
2020/12/30 02:09:29;;;;;;;67.40;34.23;;;2.10;99.90;;;-146.47;100.00;66290.13;4904930;29;20292;-80
2020/12/30 02:12:15;;;;;;;53.67;29.70;;;2.10;99.90;;;-146.47;100.00;66290.13;4904308;29;20760;-81
2020/12/30 02:15:01;;;;;;;71.37;42.60;;;2.10;99.90;;;-146.47;100.00;66290.13;4905318;29;20245;-80
2020/12/30 02:17:47;;;;;;;79.87;39.37;;;2.10;99.90;;;-146.47;100.00;66290.13;4905040;29;20628;-79
2020/12/30 02:20:32;;;;;;;81.57;41.37;;;2.20;99.90;;;-146.47;100.00;66290.13;4905300;29;20257;-79
2020/12/30 02:23:19;;;;;;;70.50;34.43;;;2.20;99.90;;;-146.47;100.00;66290.13;4902995;29;20228;-79
2020/12/30 02:26:04;;;;;;;74.20;37.37;;;2.20;99.90;;;-146.47;100.00;66290.13;4892111;29;20240;-78
2020/12/30 02:28:50;;;;;;;73.30;38.57;;;2.30;99.90;;;-146.47;100.00;66290.13;4905832;29;20304;-79
2020/12/30 02:31:35;;;;;;;73.00;37.50;;;2.30;99.90;;;-146.47;100.00;66290.13;4901568;29;20232;-80
2020/12/30 02:34:21;;;;;;;74.80;37.43;;;2.40;99.90;;;-146.47;100.00;66290.13;4903485;29;20358;-79
2020/12/30 02:37:06;;;;;;;83.30;40.47;;;2.40;99.90;;;-146.47;100.00;66290.13;4903628;29;20784;-80
2020/12/30 02:39:51;;;;;;;48.67;23.17;;;2.40;99.90;;;-146.47;100.00;66290.13;4893561;29;20300;-80
2020/12/30 02:42:37;;;;;;;73.47;38.10;;;2.50;99.90;;;-146.47;100.00;66290.13;4902234;29;20333;-79
2020/12/30 02:45:22;;;;;;;59.03;30.27;;;2.50;99.90;;;-146.47;100.00;66290.13;4902838;29;20232;-79
2020/12/30 02:48:08;;;;;;;72.93;37.20;;;2.50;99.90;;;-146.47;100.00;66290.13;4915018;29;20820;-79
2020/12/30 02:50:53;;;;;;;52.13;28.00;;;2.60;99.90;;;-146.47;100.00;66290.13;4902943;29;20215;-79
2020/12/30 02:53:39;;;;;;;64.93;34.93;;;2.60;99.90;;;-146.47;100.00;66290.13;4920790;29;20220;-80
2020/12/30 02:56:24;;;;;;;66.60;35.80;;;2.60;99.90;;;-146.47;100.00;66290.13;4913535;29;20256;-81
2020/12/30 02:59:10;;;;;;;59.13;31.77;;;2.70;99.90;;;-146.47;100.00;66290.13;4905152;29;20235;-81
2020/12/30 03:01:55;;;;;;;58.63;32.97;;;2.70;99.90;;;-146.47;100.00;66290.13;4893179;29;20217;-81
2020/12/30 03:04:40;;;;;;;54.07;32.03;;;2.70;99.90;;;-146.47;100.00;66290.13;4900857;29;20243;-81
2020/12/30 03:07:26;;;;;;;60.30;34.47;;;2.80;99.90;;;-146.47;100.00;66290.13;4904531;29;20252;-81
2020/12/30 03:10:11;;;;;;;53.70;27.07;;;2.80;99.90;;;-146.47;100.00;66290.13;4905089;29;20212;-80
2020/12/30 03:12:56;;;;;;;58.17;32.03;;;2.80;99.90;;;-146.47;100.00;66290.13;4903537;29;20235;-81
2020/12/30 03:15:42;;;;;;;45.53;27.93;;;2.90;99.90;;;-146.47;100.00;66290.13;4903976;29;20343;-80
2020/12/30 03:18:28;;;;;;;44.07;26.00;;;2.80;99.90;;;-146.47;100.00;66290.13;4894955;29;20619;-80
2020/12/30 03:21:13;;;;;;;54.60;28.83;;;2.80;99.90;;;-146.47;100.00;66290.13;4904186;29;20211;-81
2020/12/30 03:23:59;;;;;;;43.43;25.70;;;2.80;99.90;;;-146.47;100.00;66290.13;4891277;29;20248;-79
2020/12/30 03:26:43;;;;;;;49.07;29.23;;;2.80;99.90;;;-146.47;100.00;66290.13;4904814;29;20227;-81
2020/12/30 03:29:29;;;;;;;54.60;28.67;;;2.80;99.90;;;-146.47;100.00;66290.13;4904742;29;20212;-80
2020/12/30 03:32:15;;;;;;;47.47;26.93;;;2.80;99.90;;;-146.47;100.00;66290.13;4903607;29;20282;-80
2020/12/30 03:35:00;;;;;;;56.77;32.20;;;2.80;99.90;;;-146.47;100.00;66290.13;4902346;29;20293;-80
2020/12/30 03:37:45;;;;;;;51.43;29.33;;;2.80;99.90;;;-146.47;100.00;66290.13;4894496;29;20229;-81
2020/12/30 03:40:30;;;;;;;61.77;31.80;;;2.80;99.90;;;-146.47;100.00;66290.13;4904571;29;20212;-81
2020/12/30 03:43:15;;;;;;;53.50;28.93;;;2.80;99.90;;;-146.47;100.00;66290.13;4902561;29;20284;-80
2020/12/30 03:46:01;;;;;;;46.40;24.90;;;2.80;99.90;;;-146.47;100.00;66290.13;4903470;29;20592;-80
2020/12/30 03:48:47;;;;;;;52.63;30.67;;;2.80;99.90;;;-146.47;100.00;66290.13;4902086;29;20300;-81
2020/12/30 03:51:32;;;;;;;48.17;27.83;;;2.80;99.90;;;-146.47;100.00;66290.13;4884647;29;20201;-81
2020/12/30 03:54:17;;;;;;;52.23;29.20;;;2.80;99.90;;;-146.47;100.00;66290.13;4899806;29;20279;-80
2020/12/30 03:57:03;;;;;;;54.33;29.20;;;2.80;99.90;;;-146.47;100.00;66290.13;4903920;29;20208;-80
2020/12/30 03:59:48;;;;;;;45.90;27.10;;;2.80;99.90;;;-146.47;100.00;66290.13;4903135;29;20710;-78
2020/12/30 04:02:33;;;;;;;52.23;30.10;;;2.80;99.90;;;-146.47;100.00;66290.13;4900950;29;20216;-80
2020/12/30 04:05:19;;;;;;;44.03;23.70;;;2.80;99.90;;;-146.47;100.00;66290.13;4892032;29;20239;-80
2020/12/30 04:08:05;;;;;;;53.57;28.77;;;2.80;99.90;;;-146.47;100.00;66290.13;4903688;29;20216;-80
2020/12/30 04:10:50;;;;;;;63.50;29.93;;;2.80;99.90;;;-146.47;100.00;66290.13;4907513;29;20264;-79
2020/12/30 04:13:35;;;;;;;55.90;29.90;;;2.80;99.90;;;-146.47;100.00;66290.13;4908763;29;20225;-81
2020/12/30 04:16:22;;;;;;;50.33;28.50;;;2.90;99.90;;;-146.47;100.00;66290.13;4923854;29;20200;-82
2020/12/30 04:19:07;;;;;;;59.30;32.47;;;2.90;99.90;;;-146.47;100.00;66290.13;4923207;29;20213;-83
2020/12/30 04:21:54;;;;;;;61.80;34.10;;;2.90;99.90;;;-146.47;100.00;66290.13;4903839;29;20249;-80
2020/12/30 04:24:39;;;;;;;56.17;33.53;;;2.90;99.90;;;-146.47;100.00;66290.13;4902670;29;20263;-79
2020/12/30 04:27:24;;;;;;;67.70;35.97;;;2.90;99.90;;;-146.47;100.00;66290.13;4889387;29;20253;-79
2020/12/30 04:30:09;;;;;;;64.13;37.23;;;3.00;99.90;;;-146.47;100.00;66290.13;4899952;29;20746;-80
2020/12/30 04:32:55;;;;;;;58.00;31.30;;;3.00;99.90;;;-146.47;100.00;66290.13;4901726;29;20224;-80
2020/12/30 04:35:40;;;;;;;63.93;32.37;;;3.10;99.90;;;-146.47;100.00;66290.13;4884187;29;20293;-80
2020/12/30 04:38:26;;;;;;;57.33;31.07;;;3.10;99.90;;;-146.47;100.00;66290.13;4883999;29;20850;-79
2020/12/30 04:41:13;;;;;;;49.00;26.17;;;3.10;99.90;;;-146.47;100.00;66290.13;4884353;29;20242;-80
2020/12/30 04:44:01;;;;;;;39.83;21.53;;;3.10;99.90;;;-146.47;100.00;66290.13;4896041;29;20262;-80
2020/12/30 04:46:49;;;;;;;59.53;32.40;;;3.20;99.90;;;-146.47;100.00;66290.13;4881617;29;20644;-80
2020/12/30 04:49:34;;;;;;;52.30;28.83;;;3.20;99.90;;;-146.47;100.00;66290.13;4881688;29;20633;-80
2020/12/30 04:52:22;;;;;;;44.70;28.40;;;3.20;99.90;;;-146.47;100.00;66290.13;4895841;29;20207;-79
2020/12/30 04:55:08;;;;;;;54.47;29.40;;;3.20;99.90;;;-146.47;100.00;66290.13;4889560;29;20313;-79
2020/12/30 04:58:05;;;;;;;48.60;33.77;;;3.20;99.90;;;-146.47;100.00;66290.13;4899762;29;20216;-80
2020/12/30 05:00:51;;;;;;;51.37;30.33;;;3.20;99.90;;;-146.47;100.00;66290.13;4885503;29;20205;-79
2020/12/30 05:03:46;;;;;;;52.07;29.10;;;3.20;99.90;;;-146.47;100.00;66290.13;4892172;29;20233;-80
2020/12/30 05:06:33;;;;;;;53.00;30.27;;;3.20;99.90;;;-146.47;100.00;66290.13;4892482;29;20275;-80
2020/12/30 05:09:21;;;;;;;52.50;31.37;;;3.30;99.90;;;-146.47;100.00;66290.13;4891692;29;20251;-79
2020/12/30 05:12:13;;;;;;;51.50;33.20;;;3.20;99.90;;;-146.47;100.00;66290.13;4892118;29;20237;-81
2020/12/30 05:14:58;;;;;;;53.27;32.03;;;3.30;99.90;;;-146.47;100.00;66290.13;4893777;29;20847;-81
2020/12/30 05:17:43;;;;;;;49.07;29.70;;;3.20;99.90;;;-146.47;100.00;66290.13;4900194;29;20212;-81
2020/12/30 05:20:35;;;;;;;57.50;35.57;;;3.30;99.90;;;-146.47;100.00;66290.13;4894419;29;20216;-81
2020/12/30 05:23:20;;;;;;;55.90;33.53;;;3.30;99.90;;;-146.47;100.00;66290.13;4896237;29;20245;-81
2020/12/30 05:26:06;;;;;;;55.50;31.30;;;3.30;99.90;;;-146.47;100.00;66290.13;4893655;29;20219;-81
2020/12/30 05:28:53;;;;;;;50.33;28.87;;;3.40;99.90;;;-146.47;100.00;66290.13;4899695;29;20200;-81
2020/12/30 05:31:40;;;;;;;48.70;27.63;;;3.30;99.90;;;-146.47;100.00;66290.13;4889803;29;20209;-80
2020/12/30 05:34:25;;;;;;;53.23;33.30;;;3.30;99.90;;;-146.47;100.00;66290.13;4894339;29;20259;-80
2020/12/30 05:37:12;;;;;;;53.63;31.03;;;3.40;99.90;;;-146.47;100.00;66290.13;4897123;29;20204;-80
2020/12/30 05:40:01;;;;;;;53.93;31.90;;;3.40;99.90;;;-146.47;100.00;66290.13;4919873;29;20257;-81
2020/12/30 05:42:47;;;;;;;44.13;28.27;;;3.40;99.90;;;-146.47;100.00;66290.13;4904041;29;20243;-82
2020/12/30 05:45:45;;;;;;;37.90;25.97;;;3.40;99.90;;;-146.47;100.00;66290.13;4901920;29;20305;-81
2020/12/30 05:48:35;;;;;;;52.33;29.47;;;3.40;99.90;;;-146.47;100.00;66290.13;4906406;29;20228;-82
2020/12/30 05:51:28;;;;;;;46.10;28.47;;;3.40;99.90;;;-146.47;100.00;66290.13;4899271;29;20209;-82
2020/12/30 05:54:13;;;;;;;51.93;32.20;;;3.40;99.90;;;-146.47;100.00;66290.13;4896877;29;20224;-82
2020/12/30 05:56:58;;;;;;;57.07;32.17;;;3.40;99.90;;;-146.47;100.00;66290.13;4898975;29;20225;-82
2020/12/30 05:59:45;;;;;;;52.30;30.07;;;3.30;99.90;;;-146.47;100.00;66290.13;4899708;29;20300;-82
2020/12/30 06:02:32;;;;;;;57.97;32.97;;;3.30;99.90;;;-146.47;100.00;66290.13;4906113;29;20204;-82
2020/12/30 06:05:20;;;;;;;52.07;30.07;;;3.40;99.90;;;-146.47;100.00;66290.13;4897111;29;20288;-82
2020/12/30 06:08:06;;;;;;;55.90;34.80;;;3.40;99.90;;;-146.47;100.00;66290.13;4905048;29;20299;-82
2020/12/30 06:10:53;;;;;;;58.80;33.47;;;3.40;99.90;;;-146.47;100.00;66290.13;4904395;29;20219;-81
2020/12/30 06:13:45;;;;;;;59.10;35.03;;;3.50;99.90;;;-146.47;100.00;66290.13;4899708;29;20239;-82
2020/12/30 06:16:33;;;;;;;54.30;31.60;;;3.50;99.90;;;-146.47;100.00;66290.13;4903930;29;20209;-81
2020/12/30 06:19:22;;;;;;;50.03;30.93;;;3.60;99.90;;;-146.47;100.00;66290.13;4907525;29;20610;-80
2020/12/30 06:22:12;;;;;;;50.63;30.37;;;3.60;99.90;;;-146.47;100.00;66290.13;4906982;29;20746;-80
2020/12/30 06:24:57;;;;;;;52.33;31.80;;;3.60;99.90;;;-146.47;100.00;66290.13;4904991;29;20237;-80
2020/12/30 06:27:48;;;;;;;57.40;32.93;;;3.70;99.90;;;-146.47;100.00;66290.13;4910492;29;20238;-81
2020/12/30 06:30:33;;;;;;;51.97;30.63;;;3.60;99.90;;;-146.47;100.00;66290.13;4915261;29;20238;-80
2020/12/30 06:33:23;;;;;;;54.57;32.60;;;3.60;99.90;;;-146.47;100.00;66290.13;4910412;29;20252;-80
2020/12/30 06:36:09;;;;;;;46.10;26.50;;;3.70;99.90;;;-146.47;100.00;66290.13;4911362;29;20208;-81
2020/12/30 06:38:55;;;;;;;43.37;25.47;;;3.70;99.90;;;-146.47;100.00;66290.13;4916116;29;20219;-81
2020/12/30 06:41:59;;;;;;;43.63;27.60;;;3.70;99.90;;;-146.47;100.00;66290.13;4916635;29;20234;-80
2020/12/30 06:44:44;;;;;;;47.53;30.07;;;3.80;99.90;;;-146.47;100.00;66290.13;4908833;29;20295;-82
2020/12/30 06:48:00;;;;;;;43.30;26.50;;;3.70;99.90;;;-146.47;100.00;66290.13;4905411;29;21682;-82
2020/12/30 06:50:46;;;;;;;44.47;27.87;;;3.80;99.90;;;-146.47;100.00;66290.13;4906831;29;20196;-81
2020/12/30 06:53:33;;;;;;;39.73;24.10;;;3.80;99.90;;;-146.47;100.00;66290.13;4896323;29;20635;-82
2020/12/30 06:56:39;;;;;;;41.30;28.33;;;3.80;99.90;;;-146.47;100.00;66290.13;4899647;29;20212;-84
2020/12/30 06:59:28;;;;;;;35.73;22.50;;;3.80;99.90;;;-146.47;100.00;66290.13;4901224;29;20288;-83
2020/12/30 07:02:16;;;;;;;45.47;28.93;;;3.80;99.90;;;-146.47;100.00;66290.13;4900813;29;20204;-82
2020/12/30 07:05:01;;;;;;;44.30;25.43;;;3.90;99.90;;;-146.47;100.00;66290.13;4899091;29;20301;-82
2020/12/30 07:07:47;;;;;;;43.00;26.63;;;3.90;99.90;;;-146.47;100.00;66290.13;4903196;29;20223;-82
2020/12/30 07:10:40;;;;;;;42.73;27.17;;;3.90;99.90;;;-146.47;100.00;66290.13;4907745;29;20211;-82
2020/12/30 07:13:28;;;;;;;43.27;27.33;;;3.90;99.90;;;-146.47;100.00;66290.13;4904896;29;20258;-83
2020/12/30 07:16:17;;;;;;;39.57;25.73;;;3.90;99.90;;;-146.47;100.00;66290.13;4910080;29;20296;-83
2020/12/30 07:19:09;;;;;;;46.43;27.03;;;3.90;99.90;;;-146.47;100.00;66290.13;4905916;29;20208;-83
2020/12/30 07:22:01;;;;;;;42.50;27.70;;;3.90;99.90;;;-146.47;100.00;66290.13;4909962;29;20211;-82
2020/12/30 07:24:53;;;;;;;40.47;27.43;;;3.90;99.90;;;-146.47;100.00;66290.13;4908879;29;20228;-83
2020/12/30 07:27:39;;;;;;;40.27;26.13;;;4.00;99.90;;;-146.47;100.00;66290.13;4897038;29;20224;-81
2020/12/30 07:30:24;;;;;;;32.50;20.37;;;4.00;99.90;;;-146.47;100.00;66290.13;4906614;29;20203;-82
2020/12/30 07:33:10;;;;;;;39.90;26.07;;;3.90;99.90;;;-146.47;100.00;66290.13;4897440;29;20212;-81
2020/12/30 07:36:03;;;;;;;39.73;24.87;;;4.00;99.90;;;-146.47;100.00;66290.13;4905413;29;20207;-82
2020/12/30 07:38:50;;;;;;;36.07;24.40;;;3.90;99.90;;;-146.47;100.00;66290.13;4904152;29;20200;-80
2020/12/30 07:41:36;;;;;;;37.30;25.77;;;3.90;99.90;;;-146.47;100.00;66290.13;4899407;29;20212;-81
2020/12/30 07:44:23;;;;;;;40.10;25.70;;;4.00;99.90;;;-146.47;100.00;66290.13;4898293;29;20228;-83
2020/12/30 07:47:08;;;;;;;37.33;24.60;;;4.00;99.90;;;-146.47;100.00;66290.13;4902456;29;20240;-83
2020/12/30 07:49:59;;;;;;;37.47;25.10;;;4.00;99.90;;;-146.47;100.00;66290.13;4892085;29;20215;-82
2020/12/30 07:52:50;;;;;;;36.47;23.43;;;4.00;99.90;;;-146.47;100.00;66290.13;4909395;29;20678;-83
2020/12/30 07:55:35;;;;;;;34.87;22.37;;;4.00;99.90;;;-146.47;100.00;66290.13;4882978;29;20213;-84
2020/12/30 07:58:21;;;;;;;40.93;24.47;;;4.00;99.90;;;-146.47;100.00;66290.13;4913230;29;20216;-84
2020/12/30 08:01:09;;;;;;;34.17;20.17;;;4.00;99.90;;;-146.47;100.00;66290.13;4902384;29;20220;-83
2020/12/30 08:03:54;;;;;;;37.77;21.13;;;4.10;99.90;;;-146.47;100.00;66290.13;4882961;29;20260;-83
2020/12/30 08:06:47;;;;;;;40.73;24.00;;;4.10;99.90;;;-146.47;100.00;66290.13;4903956;29;20231;-82
2020/12/30 08:09:35;;;;;;;33.90;20.73;;;4.10;99.90;;;-146.47;100.00;66290.13;4906287;29;20236;-81
2020/12/30 08:12:20;;;;;;;37.20;25.33;;;4.20;99.90;;;-146.47;100.00;66290.13;4884669;29;20359;-83
2020/12/30 08:15:05;;;;;;;35.67;23.20;;;4.10;99.90;;;-146.47;100.00;66290.13;4897379;29;20236;-82
2020/12/30 08:17:51;;;;;;;35.03;20.40;;;4.10;99.90;;;-146.47;100.00;66290.13;4891964;29;20216;-82
2020/12/30 08:20:37;;;;;;;36.97;24.70;;;4.20;99.90;;;-146.47;100.00;66290.13;4899223;29;20228;-83
2020/12/30 08:23:23;;;;;;;36.57;23.17;;;4.20;99.90;;;-146.47;100.00;66290.13;4897979;29;20296;-82
2020/12/30 08:26:10;;;;;;;36.23;23.43;;;4.20;99.90;;;-146.47;100.00;66290.13;4911609;29;20218;-83
2020/12/30 08:28:56;;;;;;;35.80;24.83;;;4.20;99.90;;;-146.47;100.00;66290.13;4908789;29;20770;-83
2020/12/30 08:31:49;;;;;;;39.03;23.63;;;4.20;99.90;;;-146.47;100.00;66290.13;4902288;29;20223;-83
2020/12/30 08:34:44;;;;;;;37.53;23.50;;;4.30;99.90;;;-146.47;100.00;66290.13;4891503;29;20332;-82
2020/12/30 08:37:33;;;;;;;34.83;22.57;;;4.30;99.90;;;-146.47;100.00;66290.13;4898578;29;20284;-83
2020/12/30 08:40:23;;;;;;;38.63;21.97;;;4.30;99.90;;;-146.47;100.00;66290.13;4899049;29;20220;-81
2020/12/30 08:43:41;;;;;;;30.17;18.57;;;4.30;99.90;;;-146.47;100.00;66290.13;4890000;29;20276;-83
2020/12/30 08:46:30;;;;;;;36.13;23.60;;;4.30;99.90;;;-146.47;100.00;66290.13;4889513;29;20212;-83
2020/12/30 08:49:19;;;;;;;42.07;25.27;;;4.30;99.90;;;-146.47;100.00;66290.13;4894133;29;20213;-82
2020/12/30 08:52:19;;;;;;;41.87;24.73;;;4.30;99.90;;;-146.47;100.00;66290.13;4908593;29;20523;-81
2020/12/30 08:55:04;;;;;;;45.50;27.47;;;4.40;99.90;;;-146.47;100.00;66290.13;4886082;29;20561;-83
2020/12/30 08:57:50;;;;;;;45.30;29.13;;;4.30;99.90;;;-146.47;100.00;66290.13;4889111;29;20200;-81
2020/12/30 09:00:37;;;;;;;37.73;23.73;;;4.40;99.90;;;-146.47;100.00;66290.13;4890323;29;20212;-82
2020/12/30 09:03:26;;;;;;;41.93;27.90;;;4.40;99.90;;;-146.47;100.00;66290.13;4890996;29;20219;-83
2020/12/30 09:10:17;;;;;;;43.00;25.83;;;4.40;99.90;;;-146.47;100.00;66290.13;4876691;29;20208;-84
2020/12/30 09:13:11;;;;;;;36.10;26.90;;;4.40;99.90;;;-146.47;100.00;66290.13;4887007;29;20287;-81
2020/12/30 09:16:04;;;;;;;48.60;27.77;;;4.50;99.90;;;-146.47;100.00;66290.13;4892223;29;20208;-83
2020/12/30 09:18:50;;;;;;;38.20;23.53;;;4.50;99.90;;;-146.47;100.00;66290.13;4898464;29;20237;-81
2020/12/30 09:21:35;;;;;;;43.03;26.73;;;4.50;99.90;;;-146.47;100.00;66290.13;4898425;29;20333;-81
2020/12/30 09:24:23;;;;;;;40.67;25.80;;;4.50;99.90;;;-146.47;100.00;66290.13;4888787;29;20663;-82
2020/12/30 09:27:21;;;;;;;41.77;28.23;;;4.50;99.90;;;-146.47;100.00;66290.13;4888331;29;20220;-81
2020/12/30 09:30:09;;;;;;;43.27;28.13;;;4.50;99.90;;;-146.47;100.00;66290.13;4896727;29;20876;-82
2020/12/30 09:32:56;;;;;;;40.60;24.83;;;4.60;99.90;;;-146.47;100.00;66290.13;4890509;29;20620;-82
2020/12/30 09:35:42;;;;;;;34.03;20.63;;;4.60;99.90;;;-146.47;100.00;66290.13;4897512;29;20204;-83
2020/12/30 09:38:27;;;;;;;39.60;25.23;;;4.60;99.90;;;-146.47;100.00;66290.13;4893638;29;20322;-83
2020/12/30 09:41:15;;;;;;;36.90;22.13;;;4.60;99.90;;;-146.47;100.00;66290.13;4889108;29;20324;-82
2020/12/30 09:44:01;;;;;;;44.00;25.90;;;4.60;99.90;;;-146.47;100.00;66290.13;4898894;29;20236;-81
2020/12/30 09:46:51;;;;;;;38.50;25.07;;;4.60;99.90;;;-146.47;100.00;66290.13;4897123;29;20263;-81
2020/12/30 09:49:36;;;;;;;40.27;24.03;;;4.70;99.90;;;-146.47;100.00;66290.13;4904147;29;20248;-81
2020/12/30 09:52:21;;;;;;;34.20;23.07;;;4.70;99.90;;;-146.47;100.00;66290.13;4906283;29;20630;-81
2020/12/30 09:55:09;;;;;;;40.13;24.87;;;4.80;99.90;;;-146.47;100.00;66290.13;4880470;29;20232;-81
2020/12/30 09:57:54;;;;;;;45.30;26.93;;;4.80;99.90;;;-146.47;100.00;66290.13;4895543;29;20312;-82
2020/12/30 10:00:40;;;;;;;42.43;25.93;;;4.80;99.90;;;-146.47;100.00;66290.13;4900953;29;20210;-82
2020/12/30 10:03:25;;;;;;;37.33;24.17;;;4.90;99.90;;;-146.47;100.00;66290.13;4901045;29;20211;-84
2020/12/30 10:06:11;;;;;;;37.53;25.50;;;5.00;99.90;;;-146.47;100.00;66290.13;4896803;29;20758;-81
2020/12/30 10:08:56;;;;;;;35.67;22.63;;;5.00;99.90;;;-146.47;100.00;66290.13;4903158;29;20689;-80
2020/12/30 10:11:42;;;;;;;37.50;23.17;;;5.00;99.90;;;-146.47;100.00;66290.13;4903633;29;20220;-82
2020/12/30 10:14:27;;;;;;;32.13;21.87;;;5.10;99.90;;;-146.47;100.00;66290.13;4897463;29;20630;-80
2020/12/30 10:17:13;;;;;;;33.57;22.60;;;5.30;99.90;;;-146.47;100.00;66290.13;4899980;29;20205;-82
2020/12/30 10:19:58;;;;;;;32.30;21.43;;;5.20;99.90;;;-146.47;100.00;66290.13;4899034;29;20690;-81
2020/12/30 10:22:45;;;;;;;35.60;21.87;;;5.20;99.90;;;-146.47;100.00;66290.13;4901993;29;20223;-81
2020/12/30 10:25:30;;;;;;;32.63;20.43;;;5.30;99.90;;;-146.47;100.00;66290.13;4902138;29;20790;-81
2020/12/30 10:28:15;;;;;;;29.27;19.73;;;5.30;99.90;;;-146.47;100.00;66290.13;4900879;29;20304;-82
2020/12/30 10:31:01;;;;;;;31.67;21.17;;;5.40;99.90;;;-146.47;100.00;66290.13;4891130;29;20260;-80
2020/12/30 10:33:49;;;;;;;35.70;22.57;;;5.40;99.90;;;-146.47;100.00;66290.13;4902223;29;20257;-81
2020/12/30 10:36:34;;;;;;;30.70;20.33;;;5.50;99.90;;;-146.47;100.00;66290.13;4894552;29;20249;-82
2020/12/30 10:39:20;;;;;;;32.67;20.90;;;5.50;99.90;;;-146.47;100.00;66290.13;4901249;29;20211;-82
2020/12/30 10:42:05;;;;;;;25.57;18.03;;;5.60;99.90;;;-146.47;100.00;66290.13;4901586;29;20287;-81
2020/12/30 10:44:50;;;;;;;30.07;20.50;;;5.60;99.90;;;-146.47;100.00;66290.13;4901287;29;20240;-80
2020/12/30 10:47:35;;;;;;;31.20;19.43;;;5.60;99.90;;;-146.47;100.00;66290.13;4900514;29;20589;-81
2020/12/30 10:50:22;;;;;;;32.00;19.47;;;5.70;99.90;;;-146.47;100.00;66290.13;4902291;29;20268;-82
2020/12/30 10:53:07;;;;;;;26.63;16.70;;;5.80;99.90;;;-146.47;100.00;66290.13;4904922;29;20220;-82
2020/12/30 10:55:52;;;;;;;29.10;19.93;;;5.80;99.90;;;-146.47;100.00;66290.13;4895934;29;20217;-80
2020/12/30 10:58:38;;;;;;;29.77;19.77;;;5.90;99.90;;;-146.47;100.00;66290.13;4890681;29;20269;-82
2020/12/30 11:01:23;;;;;;;31.27;21.33;;;5.90;99.90;;;-146.47;100.00;66290.13;4901706;29;20216;-82
2020/12/30 11:04:08;;;;;;;29.00;20.77;;;5.90;99.90;;;-146.47;100.00;66290.13;4887344;29;20252;-81
2020/12/30 11:06:54;;;;;;;33.77;22.43;;;6.00;99.90;;;-146.47;100.00;66290.13;4890116;29;20288;-81
2020/12/30 11:09:39;;;;;;;33.03;21.77;;;6.00;99.90;;;-146.47;100.00;66290.13;4914786;29;20219;-83
2020/12/30 11:12:25;;;;;;;35.70;23.23;;;6.00;99.90;;;-146.47;100.00;66290.13;4920396;29;20261;-84
2020/12/30 11:15:10;;;;;;;31.17;18.00;;;6.00;99.90;;;-146.47;100.00;66290.13;4919544;29;20224;-83
2020/12/30 11:17:55;;;;;;;28.27;20.17;;;6.00;99.90;;;-146.47;100.00;66290.13;4913127;29;20195;-81